Time,TemperatureF,DewpointF,PressureIn,WindDirection,WindDirectionDegrees,WindSpeedMPH,WindSpeedGustMPH,Humidity,HourlyPrecipIn,Conditions,Clouds,dailyrainin,SolarRadiationWatts/m^2,SoftwareType,DateUTC
2013-08-04 00:06:00,58.1,56.0,29.78,NE,53,0.0,1.0,94,0.00,,,0.00,0,weatherlink.com 1.10,2013-08-04 04:06:00,
2013-08-04 00:21:00,58.0,56.0,29.78,NE,53,0.0,1.0,94,0.00,,,0.00,0,weatherlink.com 1.10,2013-08-04 04:21:00,
2013-08-04 00:36:00,57.7,56.0,29.78,NE,53,0.0,2.0,94,0.00,,,0.00,0,weatherlink.com 1.10,2013-08-04 04:36:00,
2013-08-04 00:51:00,57.3,56.0,29.78,NE,53,0.0,1.0,94,0.00,,,0.00,0,weatherlink.com 1.10,2013-08-04 04:51:00,
2013-08-04 01:06:00,56.9,56.0,29.78,NE,53,0.0,1.0,95,0.00,,,0.00,0,weatherlink.com 1.10,2013-08-04 05:06:00,
2013-08-04 01:21:00,56.6,55.0,29.78,NE,53,0.0,0.0,95,0.00,,,0.00,0,weatherlink.com 1.10,2013-08-04 05:21:00,
2013-08-04 01:36:00,56.2,55.0,29.77,NE,53,0.0,0.0,94,0.00,,,0.00,0,weatherlink.com 1.10,2013-08-04 05:36:00,
2013-08-04 01:51:00,56.0,55.0,29.77,NE,53,0.0,0.0,95,0.00,,,0.00,0,weatherlink.com 1.10,2013-08-04 05:51:00,
2013-08-04 02:06:00,56.1,55.0,29.76,NE,53,1.0,2.0,95,0.00,,,0.00,0,weatherlink.com 1.10,2013-08-04 06:06:00,
2013-08-04 02:21:00,55.9,55.0,29.76,East,98,0.0,2.0,95,0.00,,,0.00,0,weatherlink.com 1.10,2013-08-04 06:21:00,
2013-08-04 02:51:00,55.4,54.0,29.77,SE,126,0.0,2.0,95,0.00,,,0.00,0,weatherlink.com 1.10,2013-08-04 06:51:00,
2013-08-04 03:06:00,55.6,54.0,29.76,SW,220,1.0,4.0,95,0.00,,,0.00,0,weatherlink.com 1.10,2013-08-04 07:06:00,
2013-08-04 03:21:00,56.3,55.0,29.76,ESE,115,0.0,3.0,95,0.00,,,0.00,0,weatherlink.com 1.10,2013-08-04 07:21:00,
2013-08-04 03:36:00,56.1,55.0,29.76,ESE,115,0.0,2.0,95,0.00,,,0.00,0,weatherlink.com 1.10,2013-08-04 07:36:00,
2013-08-04 03:51:00,55.8,54.0,29.75,ESE,115,0.0,0.0,95,0.00,,,0.00,0,weatherlink.com 1.10,2013-08-04 07:51:00,
2013-08-04 04:06:00,55.6,54.0,29.76,ESE,115,0.0,0.0,95,0.00,,,0.00,0,weatherlink.com 1.10,2013-08-04 08:06:00,
2013-08-04 04:21:00,55.3,54.0,29.76,WNW,286,1.0,5.0,95,0.00,,,0.00,0,weatherlink.com 1.10,2013-08-04 08:21:00,
2013-08-04 04:36:00,55.7,54.0,29.76,ESE,115,0.0,4.0,95,0.00,,,0.00,0,weatherlink.com 1.10,2013-08-04 08:36:00,
2013-08-04 05:06:00,55.5,54.0,29.76,ESE,115,1.0,2.0,95,0.00,,,0.00,0,weatherlink.com 1.10,2013-08-04 09:06:00,
2013-08-04 05:21:00,55.5,54.0,29.76,East,100,0.0,2.0,95,0.00,,,0.00,0,weatherlink.com 1.10,2013-08-04 09:21:00,
2013-08-04 05:36:00,55.6,54.0,29.77,ESE,103,2.0,3.0,95,0.00,,,0.00,0,weatherlink.com 1.10,2013-08-04 09:36:00,
2013-08-04 05:51:00,56.2,55.0,29.77,SW,225,0.0,1.0,95,0.00,,,0.00,9,weatherlink.com 1.10,2013-08-04 09:51:00,
2013-08-04 06:06:00,56.4,55.0,29.77,SW,225,0.0,2.0,95,0.00,,,0.00,19,weatherlink.com 1.10,2013-08-04 10:06:00,
2013-08-04 06:21:00,57.0,56.0,29.78,East,84,5.0,5.0,95,0.00,,,0.00,39,weatherlink.com 1.10,2013-08-04 10:21:00,
2013-08-04 06:36:00,58.2,56.0,29.78,ESE,119,1.0,2.0,93,0.00,,,0.00,40,weatherlink.com 1.10,2013-08-04 10:36:00,
2013-08-04 06:51:00,59.1,57.0,29.78,ESE,107,0.0,2.0,91,0.00,,,0.00,47,weatherlink.com 1.10,2013-08-04 10:51:00,
2013-08-04 07:06:00,60.1,57.0,29.78,East,96,2.0,3.0,90,0.00,,,0.00,40,weatherlink.com 1.10,2013-08-04 11:06:00,
2013-08-04 07:21:00,59.9,57.0,29.79,NE,42,0.0,2.0,90,0.00,,,0.00,88,weatherlink.com 1.10,2013-08-04 11:21:00,
2013-08-04 07:36:00,61.1,59.0,29.79,ENE,74,1.0,2.0,91,0.00,,,0.00,63,weatherlink.com 1.10,2013-08-04 11:36:00,
2013-08-04 07:52:00,62.5,58.0,29.78,WSW,258,0.0,3.0,86,0.00,,,0.00,70,weatherlink.com 1.10,2013-08-04 11:52:00,
2013-08-04 08:07:00,62.5,58.0,29.79,SE,130,2.0,3.0,86,0.00,,,0.00,79,weatherlink.com 1.10,2013-08-04 12:07:00,
2013-08-04 08:22:00,62.9,58.0,29.79,South,171,0.0,4.0,85,0.00,,,0.00,114,weatherlink.com 1.10,2013-08-04 12:22:00,
2013-08-04 08:37:00,62.6,58.0,29.78,East,95,2.0,4.0,85,0.00,,,0.00,77,weatherlink.com 1.10,2013-08-04 12:37:00,
2013-08-04 09:07:00,62.7,58.0,29.78,ENE,75,0.0,5.0,84,0.00,,,0.00,121,weatherlink.com 1.10,2013-08-04 13:07:00,
2013-08-04 09:22:00,63.6,58.0,29.78,ESE,114,0.0,3.0,83,0.00,,,0.00,244,weatherlink.com 1.10,2013-08-04 13:22:00,
2013-08-04 09:37:00,64.4,58.0,29.78,ESE,107,0.0,4.0,80,0.00,,,0.00,264,weatherlink.com 1.10,2013-08-04 13:37:00,
2013-08-04 09:52:00,65.0,58.0,29.78,NNW,334,4.0,4.0,79,0.00,,,0.00,288,weatherlink.com 1.10,2013-08-04 13:52:00,
2013-08-04 10:07:00,66.9,59.0,29.78,SE,132,1.0,5.0,75,0.00,,,0.00,313,weatherlink.com 1.10,2013-08-04 14:07:00,
2013-08-04 10:22:00,66.9,59.0,29.77,East,91,1.0,4.0,75,0.00,,,0.00,251,weatherlink.com 1.10,2013-08-04 14:22:00,
2013-08-04 10:37:00,67.3,59.0,29.77,WNW,287,2.0,3.0,75,0.00,,,0.00,186,weatherlink.com 1.10,2013-08-04 14:37:00,
2013-08-04 10:52:00,66.6,58.0,29.76,NE,52,0.0,3.0,75,0.00,,,0.00,183,weatherlink.com 1.10,2013-08-04 14:52:00,
2013-08-04 11:07:00,66.2,58.0,29.77,ENE,72,0.0,4.0,76,0.00,,,0.00,146,weatherlink.com 1.10,2013-08-04 15:07:00,
2013-08-04 11:22:00,62.5,58.0,29.78,NE,44,0.0,4.0,85,0.00,,,0.00,190,weatherlink.com 1.10,2013-08-04 15:22:00,
2013-08-04 11:37:00,62.6,59.0,29.78,SSE,158,0.0,4.0,89,0.00,,,0.00,287,weatherlink.com 1.10,2013-08-04 15:37:00,
2013-08-04 11:52:00,63.1,59.0,29.77,WNW,286,3.0,4.0,87,0.00,,,0.00,183,weatherlink.com 1.10,2013-08-04 15:52:00,
2013-08-04 12:07:00,65.9,61.0,29.77,ENE,71,1.0,2.0,84,0.00,,,0.00,274,weatherlink.com 1.10,2013-08-04 16:07:00,
2013-08-04 12:22:00,65.2,59.0,29.77,South,178,1.0,4.0,79,0.00,,,0.00,264,weatherlink.com 1.10,2013-08-04 16:22:00,
2013-08-04 12:37:00,64.3,58.0,29.77,East,87,0.0,3.0,81,0.00,,,0.00,276,weatherlink.com 1.10,2013-08-04 16:37:00,
2013-08-04 12:52:00,64.0,59.0,29.78,West,279,0.0,3.0,83,0.00,,,0.00,274,weatherlink.com 1.10,2013-08-04 16:52:00,
2013-08-04 13:07:00,64.5,58.0,29.77,ESE,103,0.0,5.0,79,0.00,,,0.00,480,weatherlink.com 1.10,2013-08-04 17:07:00,
2013-08-04 13:22:00,66.1,58.0,29.77,WNW,284,0.0,4.0,75,0.00,,,0.00,188,weatherlink.com 1.10,2013-08-04 17:22:00,
2013-08-04 13:37:00,63.9,58.0,29.78,WNW,298,0.0,6.0,81,0.00,,,0.00,58,weatherlink.com 1.10,2013-08-04 17:37:00,
2013-08-04 13:52:00,61.5,58.0,29.78,SE,139,2.0,3.0,89,0.00,,,0.00,788,weatherlink.com 1.10,2013-08-04 17:52:00,
2013-08-04 14:07:00,62.9,59.0,29.78,South,175,0.0,2.0,87,0.00,,,0.00,288,weatherlink.com 1.10,2013-08-04 18:07:00,
2013-08-04 14:22:00,64.4,60.0,29.78,ESE,118,3.0,3.0,85,0.00,,,0.00,1078,weatherlink.com 1.10,2013-08-04 18:22:00,
2013-08-04 14:37:00,66.5,59.0,29.77,WSW,251,0.0,3.0,76,0.00,,,0.00,1141,weatherlink.com 1.10,2013-08-04 18:37:00,
2013-08-04 14:52:00,65.4,58.0,29.77,West,262,2.0,7.0,77,0.00,,,0.00,148,weatherlink.com 1.10,2013-08-04 18:52:00,
2013-08-04 15:07:00,65.0,57.0,29.77,West,269,2.0,7.0,76,0.00,,,0.00,287,weatherlink.com 1.10,2013-08-04 19:07:00,
2013-08-04 15:22:00,65.8,56.0,29.78,WNW,290,3.0,4.0,71,0.00,,,0.00,285,weatherlink.com 1.10,2013-08-04 19:22:00,
2013-08-04 15:37:00,63.8,56.0,29.78,NW,309,1.0,8.0,76,0.00,,,0.00,408,weatherlink.com 1.10,2013-08-04 19:37:00,
2013-08-04 15:52:00,63.4,56.0,29.78,WNW,292,0.0,7.0,76,0.00,,,0.00,137,weatherlink.com 1.10,2013-08-04 19:52:00,
2013-08-04 16:07:00,64.7,55.0,29.78,NNW,342,2.0,6.0,70,0.00,,,0.00,327,weatherlink.com 1.10,2013-08-04 20:07:00,
2013-08-04 16:22:00,63.4,54.0,29.80,SE,132,3.0,6.0,71,0.00,,,0.00,69,weatherlink.com 1.10,2013-08-04 20:22:00,
2013-08-04 16:37:00,61.3,53.0,29.79,NE,42,1.0,5.0,74,0.00,,,0.00,114,weatherlink.com 1.10,2013-08-04 20:37:00,
2013-08-04 16:52:00,60.8,55.0,29.78,ESE,114,2.0,2.0,80,0.00,,,0.00,165,weatherlink.com 1.10,2013-08-04 20:52:00,
2013-08-04 17:07:00,62.9,54.0,29.78,SE,144,0.0,4.0,73,0.00,,,0.00,105,weatherlink.com 1.10,2013-08-04 21:07:00,
2013-08-04 17:22:00,63.8,56.0,29.79,SE,142,2.0,4.0,75,0.00,,,0.00,91,weatherlink.com 1.10,2013-08-04 21:22:00,
2013-08-04 17:37:00,63.7,54.0,29.80,NNE,20,1.0,8.0,71,0.00,,,0.00,121,weatherlink.com 1.10,2013-08-04 21:37:00,
2013-08-04 17:52:00,63.9,54.0,29.80,NNW,346,1.0,6.0,70,0.00,,,0.00,162,weatherlink.com 1.10,2013-08-04 21:52:00,
2013-08-04 18:07:00,63.8,53.0,29.80,NW,310,2.0,7.0,69,0.00,,,0.00,109,weatherlink.com 1.10,2013-08-04 22:07:00,
2013-08-04 18:22:00,62.6,53.0,29.81,WSW,254,0.0,6.0,72,0.00,,,0.00,88,weatherlink.com 1.10,2013-08-04 22:22:00,
2013-08-04 18:37:00,62.2,54.0,29.81,WNW,296,1.0,3.0,75,0.00,,,0.00,148,weatherlink.com 1.10,2013-08-04 22:37:00,
2013-08-04 18:52:00,61.8,55.0,29.82,NNW,328,1.0,4.0,79,0.00,,,0.00,100,weatherlink.com 1.10,2013-08-04 22:52:00,
2013-08-04 19:07:00,61.1,55.0,29.82,NNW,329,0.0,3.0,79,0.00,,,0.00,37,weatherlink.com 1.10,2013-08-04 23:07:00,
2013-08-04 19:22:00,60.4,55.0,29.83,NE,43,0.0,1.0,81,0.00,,,0.00,30,weatherlink.com 1.10,2013-08-04 23:22:00,
2013-08-04 19:37:00,59.8,53.0,29.83,West,276,1.0,3.0,79,0.00,,,0.00,46,weatherlink.com 1.10,2013-08-04 23:37:00,
2013-08-04 19:52:00,59.7,54.0,29.84,West,271,2.0,3.0,80,0.00,,,0.00,16,weatherlink.com 1.10,2013-08-04 23:52:00,
2013-08-04 20:07:00,59.2,53.0,29.84,NW,325,0.0,2.0,81,0.00,,,0.00,14,weatherlink.com 1.10,2013-08-05 00:07:00,
2013-08-04 20:22:00,58.4,53.0,29.84,SW,232,0.0,3.0,82,0.00,,,0.00,0,weatherlink.com 1.10,2013-08-05 00:22:00,
2013-08-04 20:37:00,57.8,53.0,29.84,WNW,300,0.0,0.0,83,0.00,,,0.00,0,weatherlink.com 1.10,2013-08-05 00:37:00,
2013-08-04 20:52:00,57.0,53.0,29.85,WNW,300,0.0,0.0,85,0.00,,,0.00,0,weatherlink.com 1.10,2013-08-05 00:52:00,
2013-08-04 21:07:00,56.1,53.0,29.85,WNW,300,0.0,0.0,88,0.00,,,0.00,0,weatherlink.com 1.10,2013-08-05 01:07:00,
2013-08-04 21:22:00,55.4,53.0,29.85,WNW,300,0.0,1.0,90,0.00,,,0.00,0,weatherlink.com 1.10,2013-08-05 01:22:00,
2013-08-04 21:38:00,55.5,52.0,29.85,West,259,0.0,4.0,89,0.00,,,0.00,0,weatherlink.com 1.10,2013-08-05 01:38:00,
2013-08-04 21:52:00,55.9,52.0,29.85,SE,126,1.0,2.0,88,0.00,,,0.00,0,weatherlink.com 1.10,2013-08-05 01:52:00,
2013-08-04 22:08:00,56.2,52.0,29.85,West,277,0.0,3.0,87,0.00,,,0.00,0,weatherlink.com 1.10,2013-08-05 02:08:00,
2013-08-04 22:22:00,56.5,53.0,29.85,South,189,1.0,1.0,88,0.00,,,0.00,0,weatherlink.com 1.10,2013-08-05 02:22:00,
2013-08-04 22:38:00,56.5,53.0,29.86,SW,231,0.0,1.0,88,0.00,,,0.00,0,weatherlink.com 1.10,2013-08-05 02:38:00,
2013-08-04 22:53:00,56.8,54.0,29.86,NNW,337,0.0,9.0,89,0.00,,,0.00,0,weatherlink.com 1.10,2013-08-05 02:53:00,
2013-08-04 23:08:00,56.6,53.0,29.86,NNW,327,3.0,5.0,88,0.00,,,0.00,0,weatherlink.com 1.10,2013-08-05 03:08:00,
2013-08-04 23:23:00,56.5,53.0,29.86,WNW,290,0.0,7.0,88,0.00,,,0.00,0,weatherlink.com 1.10,2013-08-05 03:23:00,
2013-08-04 23:38:00,56.0,52.0,29.86,West,271,0.0,5.0,87,0.00,,,0.00,0,weatherlink.com 1.10,2013-08-05 03:38:00,
2013-08-04 23:53:00,56.0,53.0,29.87,WNW,294,0.0,3.0,88,0.00,,,0.00,0,weatherlink.com 1.10,2013-08-05 03:53:00,